sensor_id;sensor_type;location;lat;lon;timestamp;pressure;altitude;pressure_sealevel;temperature;humidity
21826;BME280;11075;47.944;11.776;2024-01-30T00:00:47;96154.25;;;-6.36;67.64
21826;BME280;11075;47.944;11.776;2024-01-30T00:03:14;96158.94;;;-6.40;68.15
21826;BME280;11075;47.944;11.776;2024-01-30T00:05:40;96152.91;;;-6.48;69.47
21826;BME280;11075;47.944;11.776;2024-01-30T00:08:07;96158.16;;;-6.74;71.47
21826;BME280;11075;47.944;11.776;2024-01-30T00:10:34;96153.78;;;-6.74;69.55
21826;BME280;11075;47.944;11.776;2024-01-30T00:13:01;96156.28;;;-7.24;72.68
21826;BME280;11075;47.944;11.776;2024-01-30T00:15:28;96157.13;;;-7.41;76.91
21826;BME280;11075;47.944;11.776;2024-01-30T00:17:54;96160.13;;;-7.89;84.44
21826;BME280;11075;47.944;11.776;2024-01-30T00:20:21;96159.16;;;-7.71;81.92
21826;BME280;11075;47.944;11.776;2024-01-30T00:22:48;96163.75;;;-7.64;82.57
21826;BME280;11075;47.944;11.776;2024-01-30T00:25:15;96159.91;;;-7.60;81.42
21826;BME280;11075;47.944;11.776;2024-01-30T00:27:42;96159.91;;;-7.78;83.16
21826;BME280;11075;47.944;11.776;2024-01-30T00:30:09;96161.81;;;-7.62;80.68
21826;BME280;11075;47.944;11.776;2024-01-30T00:32:35;96161.38;;;-7.76;83.81
21826;BME280;11075;47.944;11.776;2024-01-30T00:35:02;96162.81;;;-7.81;83.64
21826;BME280;11075;47.944;11.776;2024-01-30T00:37:29;96152.81;;;-7.32;79.71
21826;BME280;11075;47.944;11.776;2024-01-30T00:39:58;96156.81;;;-7.82;82.29
21826;BME280;11075;47.944;11.776;2024-01-30T00:42:25;96161.81;;;-7.45;80.40
21826;BME280;11075;47.944;11.776;2024-01-30T00:44:52;96168.69;;;-7.53;78.22
21826;BME280;11075;47.944;11.776;2024-01-30T00:47:18;96164.31;;;-7.35;78.31
21826;BME280;11075;47.944;11.776;2024-01-30T00:49:45;96163.84;;;-7.30;77.66
21826;BME280;11075;47.944;11.776;2024-01-30T00:52:12;96163.78;;;-7.39;80.06
21826;BME280;11075;47.944;11.776;2024-01-30T00:54:39;96156.56;;;-7.53;81.54
21826;BME280;11075;47.944;11.776;2024-01-30T00:57:05;96161.75;;;-7.53;82.33
21826;BME280;11075;47.944;11.776;2024-01-30T00:59:32;96160.16;;;-7.46;78.95
21826;BME280;11075;47.944;11.776;2024-01-30T01:01:59;96162.38;;;-7.33;78.18
21826;BME280;11075;47.944;11.776;2024-01-30T01:04:26;96156.47;;;-7.43;79.40
21826;BME280;11075;47.944;11.776;2024-01-30T01:06:53;96154.84;;;-6.92;75.74
21826;BME280;11075;47.944;11.776;2024-01-30T01:09:20;96161.78;;;-6.67;72.90
21826;BME280;11075;47.944;11.776;2024-01-30T01:11:47;96156.69;;;-7.11;75.21
21826;BME280;11075;47.944;11.776;2024-01-30T01:14:14;96160.44;;;-6.71;71.44
21826;BME280;11075;47.944;11.776;2024-01-30T01:16:41;96156.34;;;-6.82;71.01
21826;BME280;11075;47.944;11.776;2024-01-30T01:19:07;96163.09;;;-7.84;83.07
21826;BME280;11075;47.944;11.776;2024-01-30T01:21:34;96159.38;;;-7.64;80.76
21826;BME280;11075;47.944;11.776;2024-01-30T01:24:01;96165.31;;;-7.02;74.85
21826;BME280;11075;47.944;11.776;2024-01-30T01:26:27;96163.38;;;-7.00;73.55
21826;BME280;11075;47.944;11.776;2024-01-30T01:28:54;96161.19;;;-6.87;73.37
21826;BME280;11075;47.944;11.776;2024-01-30T01:31:21;96162.16;;;-6.54;69.65
21826;BME280;11075;47.944;11.776;2024-01-30T01:33:51;96165.19;;;-6.66;69.24
21826;BME280;11075;47.944;11.776;2024-01-30T01:36:18;96168.16;;;-6.87;71.16
21826;BME280;11075;47.944;11.776;2024-01-30T01:38:45;96163.59;;;-7.19;73.69
21826;BME280;11075;47.944;11.776;2024-01-30T01:41:11;96163.84;;;-7.92;82.27
21826;BME280;11075;47.944;11.776;2024-01-30T01:43:38;96164.41;;;-7.45;78.51
21826;BME280;11075;47.944;11.776;2024-01-30T01:46:06;96172.59;;;-7.31;75.96
21826;BME280;11075;47.944;11.776;2024-01-30T01:48:33;96167.50;;;-7.15;74.29
21826;BME280;11075;47.944;11.776;2024-01-30T01:51:00;96158.63;;;-7.56;79.10
21826;BME280;11075;47.944;11.776;2024-01-30T01:53:27;96165.75;;;-7.58;80.55
21826;BME280;11075;47.944;11.776;2024-01-30T01:55:54;96157.53;;;-7.72;81.08
21826;BME280;11075;47.944;11.776;2024-01-30T01:58:21;96160.13;;;-7.54;79.43
21826;BME280;11075;47.944;11.776;2024-01-30T02:00:49;96163.16;;;-7.76;84.79
21826;BME280;11075;47.944;11.776;2024-01-30T02:03:17;96158.53;;;-7.47;82.28
21826;BME280;11075;47.944;11.776;2024-01-30T02:05:44;96155.44;;;-7.50;85.38
21826;BME280;11075;47.944;11.776;2024-01-30T02:08:11;96160.56;;;-7.76;84.39
21826;BME280;11075;47.944;11.776;2024-01-30T02:10:38;96159.69;;;-7.67;81.06
21826;BME280;11075;47.944;11.776;2024-01-30T02:13:05;96157.38;;;-7.70;85.03
21826;BME280;11075;47.944;11.776;2024-01-30T02:15:32;96154.19;;;-7.20;78.90
21826;BME280;11075;47.944;11.776;2024-01-30T02:17:59;96146.28;;;-7.37;79.14
21826;BME280;11075;47.944;11.776;2024-01-30T02:20:25;96159.22;;;-7.45;79.16
21826;BME280;11075;47.944;11.776;2024-01-30T02:22:55;96151.69;;;-7.30;80.02
21826;BME280;11075;47.944;11.776;2024-01-30T02:25:36;96151.94;;;-7.15;78.68
21826;BME280;11075;47.944;11.776;2024-01-30T02:28:03;96152.97;;;-7.34;83.04
21826;BME280;11075;47.944;11.776;2024-01-30T02:30:30;96157.78;;;-7.39;80.35
21826;BME280;11075;47.944;11.776;2024-01-30T02:32:56;96158.09;;;-7.42;80.51
21826;BME280;11075;47.944;11.776;2024-01-30T02:35:23;96156.66;;;-7.37;79.71
21826;BME280;11075;47.944;11.776;2024-01-30T02:37:50;96167.53;;;-7.59;82.72
21826;BME280;11075;47.944;11.776;2024-01-30T02:40:17;96166.56;;;-7.58;80.69
21826;BME280;11075;47.944;11.776;2024-01-30T02:42:44;96165.59;;;-7.57;80.99
21826;BME280;11075;47.944;11.776;2024-01-30T02:45:11;96154.28;;;-7.30;77.30
21826;BME280;11075;47.944;11.776;2024-01-30T02:47:38;96151.91;;;-7.23;76.38
21826;BME280;11075;47.944;11.776;2024-01-30T02:50:05;96149.25;;;-7.31;79.50
21826;BME280;11075;47.944;11.776;2024-01-30T02:52:32;96160.22;;;-7.38;77.55
21826;BME280;11075;47.944;11.776;2024-01-30T02:54:59;96157.75;;;-7.65;77.68
21826;BME280;11075;47.944;11.776;2024-01-30T02:57:26;96156.84;;;-7.56;78.90
21826;BME280;11075;47.944;11.776;2024-01-30T02:59:52;96152.03;;;-7.51;78.86
21826;BME280;11075;47.944;11.776;2024-01-30T03:02:19;96155.50;;;-6.90;72.93
21826;BME280;11075;47.944;11.776;2024-01-30T03:04:46;96145.28;;;-7.18;72.86
21826;BME280;11075;47.944;11.776;2024-01-30T03:07:13;96152.69;;;-7.49;78.11
21826;BME280;11075;47.944;11.776;2024-01-30T03:09:41;96150.56;;;-7.27;75.74
21826;BME280;11075;47.944;11.776;2024-01-30T03:12:08;96148.22;;;-7.39;77.53
21826;BME280;11075;47.944;11.776;2024-01-30T03:14:37;96147.06;;;-7.18;74.68
21826;BME280;11075;47.944;11.776;2024-01-30T03:17:04;96144.63;;;-7.20;74.10
21826;BME280;11075;47.944;11.776;2024-01-30T03:19:30;96146.69;;;-6.97;72.40
21826;BME280;11075;47.944;11.776;2024-01-30T03:21:57;96146.19;;;-7.01;72.23
21826;BME280;11075;47.944;11.776;2024-01-30T03:24:24;96144.66;;;-6.86;71.17
21826;BME280;11075;47.944;11.776;2024-01-30T03:26:51;96150.69;;;-6.77;69.98
21826;BME280;11075;47.944;11.776;2024-01-30T03:29:17;96149.44;;;-6.99;70.74
21826;BME280;11075;47.944;11.776;2024-01-30T03:31:44;96144.72;;;-7.29;73.53
21826;BME280;11075;47.944;11.776;2024-01-30T03:34:11;96138.78;;;-7.22;71.71
21826;BME280;11075;47.944;11.776;2024-01-30T03:36:38;96139.38;;;-7.02;70.09
21826;BME280;11075;47.944;11.776;2024-01-30T03:39:04;96143.44;;;-7.25;71.09
21826;BME280;11075;47.944;11.776;2024-01-30T03:41:31;96144.41;;;-7.52;74.50
21826;BME280;11075;47.944;11.776;2024-01-30T03:43:58;96148.00;;;-7.89;76.71
21826;BME280;11075;47.944;11.776;2024-01-30T03:46:25;96145.88;;;-7.50;73.58
21826;BME280;11075;47.944;11.776;2024-01-30T03:48:51;96136.44;;;-7.33;74.78
21826;BME280;11075;47.944;11.776;2024-01-30T03:51:18;96140.31;;;-7.55;76.12
21826;BME280;11075;47.944;11.776;2024-01-30T03:53:45;96141.25;;;-7.38;73.18
21826;BME280;11075;47.944;11.776;2024-01-30T03:56:12;96139.22;;;-7.52;74.24
21826;BME280;11075;47.944;11.776;2024-01-30T03:58:40;96141.22;;;-7.20;71.67
21826;BME280;11075;47.944;11.776;2024-01-30T04:01:07;96143.53;;;-7.35;71.28
21826;BME280;11075;47.944;11.776;2024-01-30T04:03:34;96137.38;;;-7.60;76.62
21826;BME280;11075;47.944;11.776;2024-01-30T04:06:01;96139.88;;;-7.50;73.05
21826;BME280;11075;47.944;11.776;2024-01-30T04:08:27;96137.94;;;-7.48;72.68
21826;BME280;11075;47.944;11.776;2024-01-30T04:10:54;96135.97;;;-7.72;77.80
21826;BME280;11075;47.944;11.776;2024-01-30T04:13:21;96134.69;;;-7.50;72.86
21826;BME280;11075;47.944;11.776;2024-01-30T04:15:48;96141.59;;;-7.59;73.85
21826;BME280;11075;47.944;11.776;2024-01-30T04:18:15;96133.28;;;-7.45;72.08
21826;BME280;11075;47.944;11.776;2024-01-30T04:20:41;96142.56;;;-7.78;75.85
21826;BME280;11075;47.944;11.776;2024-01-30T04:23:08;96135.00;;;-7.53;72.95
21826;BME280;11075;47.944;11.776;2024-01-30T04:25:35;96142.69;;;-7.44;71.70
21826;BME280;11075;47.944;11.776;2024-01-30T04:28:01;96136.75;;;-7.97;73.89
21826;BME280;11075;47.944;11.776;2024-01-30T04:30:28;96137.03;;;-7.39;72.84
21826;BME280;11075;47.944;11.776;2024-01-30T04:32:55;96142.25;;;-8.46;77.82
21826;BME280;11075;47.944;11.776;2024-01-30T04:35:22;96137.25;;;-8.12;77.75
21826;BME280;11075;47.944;11.776;2024-01-30T04:37:52;96130.59;;;-7.79;74.61
21826;BME280;11075;47.944;11.776;2024-01-30T04:40:19;96128.66;;;-7.77;73.01
21826;BME280;11075;47.944;11.776;2024-01-30T04:42:46;96132.28;;;-7.87;72.94
21826;BME280;11075;47.944;11.776;2024-01-30T04:45:13;96136.00;;;-7.90;74.89
21826;BME280;11075;47.944;11.776;2024-01-30T04:47:40;96138.44;;;-7.88;77.08
21826;BME280;11075;47.944;11.776;2024-01-30T04:50:06;96143.91;;;-7.91;78.56
21826;BME280;11075;47.944;11.776;2024-01-30T04:52:33;96144.28;;;-7.69;76.24
21826;BME280;11075;47.944;11.776;2024-01-30T04:55:00;96137.69;;;-8.34;78.58
21826;BME280;11075;47.944;11.776;2024-01-30T04:57:27;96145.25;;;-8.05;77.98
21826;BME280;11075;47.944;11.776;2024-01-30T04:59:54;96139.16;;;-7.60;73.65
21826;BME280;11075;47.944;11.776;2024-01-30T05:02:20;96144.72;;;-7.73;74.73
21826;BME280;11075;47.944;11.776;2024-01-30T05:04:47;96142.16;;;-7.91;79.01
21826;BME280;11075;47.944;11.776;2024-01-30T05:07:14;96142.66;;;-7.87;77.23
21826;BME280;11075;47.944;11.776;2024-01-30T05:09:41;96140.16;;;-8.15;80.35
21826;BME280;11075;47.944;11.776;2024-01-30T05:12:07;96145.31;;;-7.79;77.05
21826;BME280;11075;47.944;11.776;2024-01-30T05:14:34;96145.84;;;-7.93;76.11
21826;BME280;11075;47.944;11.776;2024-01-30T05:17:01;96149.22;;;-7.57;73.52
21826;BME280;11075;47.944;11.776;2024-01-30T05:19:29;96147.91;;;-7.36;71.88
21826;BME280;11075;47.944;11.776;2024-01-30T05:21:56;96147.03;;;-7.70;74.34
21826;BME280;11075;47.944;11.776;2024-01-30T05:24:23;96156.25;;;-7.50;71.29
21826;BME280;11075;47.944;11.776;2024-01-30T05:26:52;96158.44;;;-7.37;71.35
21826;BME280;11075;47.944;11.776;2024-01-30T05:29:19;96156.44;;;-8.05;79.00
21826;BME280;11075;47.944;11.776;2024-01-30T05:31:46;96154.66;;;-7.86;76.84
21826;BME280;11075;47.944;11.776;2024-01-30T05:34:12;96161.47;;;-7.85;78.31
21826;BME280;11075;47.944;11.776;2024-01-30T05:36:39;96155.75;;;-8.07;79.90
21826;BME280;11075;47.944;11.776;2024-01-30T05:39:06;96155.69;;;-8.15;80.47
21826;BME280;11075;47.944;11.776;2024-01-30T05:41:34;96146.72;;;-7.85;77.17
21826;BME280;11075;47.944;11.776;2024-01-30T05:44:01;96149.47;;;-7.69;78.34
21826;BME280;11075;47.944;11.776;2024-01-30T05:46:28;96154.06;;;-7.80;75.76
21826;BME280;11075;47.944;11.776;2024-01-30T05:48:55;96156.28;;;-8.21;79.68
21826;BME280;11075;47.944;11.776;2024-01-30T05:51:21;96163.69;;;-7.90;76.88
21826;BME280;11075;47.944;11.776;2024-01-30T05:53:49;96165.03;;;-8.04;80.21
21826;BME280;11075;47.944;11.776;2024-01-30T05:56:16;96169.84;;;-7.91;77.93
21826;BME280;11075;47.944;11.776;2024-01-30T05:58:42;96165.91;;;-7.95;77.31
21826;BME280;11075;47.944;11.776;2024-01-30T06:01:09;96164.81;;;-7.75;76.52
21826;BME280;11075;47.944;11.776;2024-01-30T06:03:36;96165.47;;;-7.73;74.72
21826;BME280;11075;47.944;11.776;2024-01-30T06:06:03;96164.47;;;-8.25;78.84
21826;BME280;11075;47.944;11.776;2024-01-30T06:08:30;96159.25;;;-7.80;74.80
21826;BME280;11075;47.944;11.776;2024-01-30T06:10:57;96157.03;;;-7.75;74.09
21826;BME280;11075;47.944;11.776;2024-01-30T06:13:23;96166.78;;;-7.51;71.49
21826;BME280;11075;47.944;11.776;2024-01-30T06:15:50;96157.69;;;-7.73;74.17
21826;BME280;11075;47.944;11.776;2024-01-30T06:18:17;96165.81;;;-7.50;71.10
21826;BME280;11075;47.944;11.776;2024-01-30T06:20:44;96170.06;;;-7.67;74.70
21826;BME280;11075;47.944;11.776;2024-01-30T06:23:10;96172.19;;;-8.16;78.18
21826;BME280;11075;47.944;11.776;2024-01-30T06:25:39;96169.16;;;-7.58;73.29
21826;BME280;11075;47.944;11.776;2024-01-30T06:28:06;96169.63;;;-7.37;69.55
21826;BME280;11075;47.944;11.776;2024-01-30T06:30:32;96176.50;;;-7.27;69.85
21826;BME280;11075;47.944;11.776;2024-01-30T06:32:59;96174.19;;;-7.13;69.11
21826;BME280;11075;47.944;11.776;2024-01-30T06:35:26;96172.94;;;-7.26;70.39
21826;BME280;11075;47.944;11.776;2024-01-30T06:37:55;96172.53;;;-7.40;70.02
21826;BME280;11075;47.944;11.776;2024-01-30T06:40:21;96174.75;;;-7.45;69.91
21826;BME280;11075;47.944;11.776;2024-01-30T06:42:48;96177.38;;;-7.19;72.97
21826;BME280;11075;47.944;11.776;2024-01-30T06:45:15;96181.31;;;-7.76;74.62
21826;BME280;11075;47.944;11.776;2024-01-30T06:47:42;96177.75;;;-7.14;71.61
21826;BME280;11075;47.944;11.776;2024-01-30T06:50:08;96177.75;;;-7.14;69.92
21826;BME280;11075;47.944;11.776;2024-01-30T06:52:35;96182.91;;;-7.40;70.76
21826;BME280;11075;47.944;11.776;2024-01-30T06:55:02;96188.41;;;-7.60;74.53
21826;BME280;11075;47.944;11.776;2024-01-30T06:57:29;96181.72;;;-7.27;70.86
21826;BME280;11075;47.944;11.776;2024-01-30T06:59:57;96179.66;;;-7.16;70.35
21826;BME280;11075;47.944;11.776;2024-01-30T07:02:23;96185.22;;;-7.11;70.18
21826;BME280;11075;47.944;11.776;2024-01-30T07:04:50;96190.16;;;-7.25;70.50
21826;BME280;11075;47.944;11.776;2024-01-30T07:07:17;96193.00;;;-6.85;69.70
21826;BME280;11075;47.944;11.776;2024-01-30T07:09:44;96194.94;;;-6.87;69.14
21826;BME280;11075;47.944;11.776;2024-01-30T07:12:11;96195.66;;;-6.77;67.88
21826;BME280;11075;47.944;11.776;2024-01-30T07:14:38;96186.69;;;-7.08;69.76
21826;BME280;11075;47.944;11.776;2024-01-30T07:17:05;96191.53;;;-7.13;73.73
21826;BME280;11075;47.944;11.776;2024-01-30T07:19:32;96197.06;;;-6.82;69.92
21826;BME280;11075;47.944;11.776;2024-01-30T07:21:59;96196.16;;;-7.25;72.16
21826;BME280;11075;47.944;11.776;2024-01-30T07:24:26;96191.88;;;-6.82;70.27
21826;BME280;11075;47.944;11.776;2024-01-30T07:26:53;96199.59;;;-6.30;67.96
21826;BME280;11075;47.944;11.776;2024-01-30T07:29:19;96199.88;;;-6.42;69.32
21826;BME280;11075;47.944;11.776;2024-01-30T07:31:46;96203.91;;;-6.47;71.06
21826;BME280;11075;47.944;11.776;2024-01-30T07:34:13;96204.53;;;-6.53;69.97
21826;BME280;11075;47.944;11.776;2024-01-30T07:36:40;96201.66;;;-6.42;70.29
21826;BME280;11075;47.944;11.776;2024-01-30T07:39:07;96194.19;;;-5.87;66.95
21826;BME280;11075;47.944;11.776;2024-01-30T07:41:34;96192.09;;;-5.43;65.58
21826;BME280;11075;47.944;11.776;2024-01-30T07:44:00;96200.41;;;-5.55;67.04
21826;BME280;11075;47.944;11.776;2024-01-30T07:46:27;96190.13;;;-3.52;62.01
21826;BME280;11075;47.944;11.776;2024-01-30T07:48:54;96192.28;;;-0.78;52.29
21826;BME280;11075;47.944;11.776;2024-01-30T07:51:22;96170.47;;;-1.35;52.43
21826;BME280;11075;47.944;11.776;2024-01-30T07:53:49;96194.19;;;-2.74;56.14
21826;BME280;11075;47.944;11.776;2024-01-30T07:56:15;96194.25;;;-2.97;58.72
21826;BME280;11075;47.944;11.776;2024-01-30T07:58:42;96201.50;;;-3.44;62.09
21826;BME280;11075;47.944;11.776;2024-01-30T08:01:09;96194.16;;;-1.64;54.89
21826;BME280;11075;47.944;11.776;2024-01-30T08:03:36;96193.28;;;-0.79;54.27
21826;BME280;11075;47.944;11.776;2024-01-30T08:06:03;96193.22;;;0.24;52.26
21826;BME280;11075;47.944;11.776;2024-01-30T08:08:30;96195.78;;;1.45;48.39
21826;BME280;11075;47.944;11.776;2024-01-30T08:10:57;96218.97;;;1.81;47.06
21826;BME280;11075;47.944;11.776;2024-01-30T08:13:23;96201.88;;;1.25;47.75
21826;BME280;11075;47.944;11.776;2024-01-30T08:15:50;96172.31;;;0.64;48.80
21826;BME280;11075;47.944;11.776;2024-01-30T08:18:17;96197.22;;;1.07;48.46
21826;BME280;11075;47.944;11.776;2024-01-30T08:20:44;96207.69;;;1.60;46.63
21826;BME280;11075;47.944;11.776;2024-01-30T08:23:10;96224.84;;;2.47;45.26
21826;BME280;11075;47.944;11.776;2024-01-30T08:25:37;96213.28;;;3.36;44.89
21826;BME280;11075;47.944;11.776;2024-01-30T08:28:04;96205.31;;;3.61;44.41
21826;BME280;11075;47.944;11.776;2024-01-30T08:30:31;96218.72;;;4.21;42.37
21826;BME280;11075;47.944;11.776;2024-01-30T08:32:58;96226.97;;;4.61;41.66
21826;BME280;11075;47.944;11.776;2024-01-30T08:35:25;96150.06;;;1.26;45.91
21826;BME280;11075;47.944;11.776;2024-01-30T08:37:51;96216.72;;;4.94;41.71
21826;BME280;11075;47.944;11.776;2024-01-30T08:40:18;96227.84;;;4.55;40.45
21826;BME280;11075;47.944;11.776;2024-01-30T08:42:45;96184.84;;;3.81;42.29
21826;BME280;11075;47.944;11.776;2024-01-30T08:45:12;96224.66;;;5.95;40.41
21826;BME280;11075;47.944;11.776;2024-01-30T08:47:40;96224.84;;;6.16;40.67
21826;BME280;11075;47.944;11.776;2024-01-30T08:50:07;96220.75;;;5.50;39.83
21826;BME280;11075;47.944;11.776;2024-01-30T08:52:34;96237.09;;;6.58;38.28
21826;BME280;11075;47.944;11.776;2024-01-30T08:55:01;96197.59;;;5.57;40.04
21826;BME280;11075;47.944;11.776;2024-01-30T08:57:28;96229.00;;;6.93;38.18
21826;BME280;11075;47.944;11.776;2024-01-30T08:59:55;96254.16;;;7.35;36.33
21826;BME280;11075;47.944;11.776;2024-01-30T09:02:22;96245.81;;;8.59;36.10
21826;BME280;11075;47.944;11.776;2024-01-30T09:04:49;96241.28;;;7.27;36.71
21826;BME280;11075;47.944;11.776;2024-01-30T09:07:15;96265.25;;;9.03;35.34
21826;BME280;11075;47.944;11.776;2024-01-30T09:09:42;96223.72;;;7.93;37.28
21826;BME280;11075;47.944;11.776;2024-01-30T09:12:09;96241.84;;;9.37;36.27
21826;BME280;11075;47.944;11.776;2024-01-30T09:14:39;96257.53;;;8.80;35.06
21826;BME280;11075;47.944;11.776;2024-01-30T09:17:05;96251.34;;;9.60;35.11
21826;BME280;11075;47.944;11.776;2024-01-30T09:19:32;96248.91;;;9.54;35.62
21826;BME280;11075;47.944;11.776;2024-01-30T09:21:59;96219.66;;;9.00;36.65
21826;BME280;11075;47.944;11.776;2024-01-30T09:24:26;96265.91;;;10.17;34.77
21826;BME280;11075;47.944;11.776;2024-01-30T09:26:53;96266.53;;;10.34;33.86
21826;BME280;11075;47.944;11.776;2024-01-30T09:29:20;96207.94;;;9.28;37.38
21826;BME280;11075;47.944;11.776;2024-01-30T09:31:47;96236.84;;;9.14;35.92
21826;BME280;11075;47.944;11.776;2024-01-30T09:34:14;96197.81;;;8.71;37.71
21826;BME280;11075;47.944;11.776;2024-01-30T09:36:41;96200.25;;;9.68;37.72
21826;BME280;11075;47.944;11.776;2024-01-30T09:39:07;96248.47;;;10.56;35.14
21826;BME280;11075;47.944;11.776;2024-01-30T09:41:36;96234.63;;;8.57;36.16
21826;BME280;11075;47.944;11.776;2024-01-30T09:44:08;96261.31;;;10.59;34.32
21826;BME280;11075;47.944;11.776;2024-01-30T09:46:35;96271.53;;;9.78;34.33
21826;BME280;11075;47.944;11.776;2024-01-30T09:49:02;96237.91;;;10.19;35.96
21826;BME280;11075;47.944;11.776;2024-01-30T09:51:29;96270.66;;;11.80;33.43
21826;BME280;11075;47.944;11.776;2024-01-30T09:53:56;96202.94;;;9.36;37.09
21826;BME280;11075;47.944;11.776;2024-01-30T09:56:23;96254.09;;;11.63;33.98
21826;BME280;11075;47.944;11.776;2024-01-30T09:58:50;96290.81;;;12.73;31.78
21826;BME280;11075;47.944;11.776;2024-01-30T10:01:17;96269.00;;;11.39;33.16
21826;BME280;11075;47.944;11.776;2024-01-30T10:03:46;96216.91;;;10.38;35.85
21826;BME280;11075;47.944;11.776;2024-01-30T10:06:13;96249.25;;;11.65;33.96
21826;BME280;11075;47.944;11.776;2024-01-30T10:08:41;96263.69;;;11.84;32.98
21826;BME280;11075;47.944;11.776;2024-01-30T10:11:08;96261.28;;;12.88;32.29
21826;BME280;11075;47.944;11.776;2024-01-30T10:13:35;96239.13;;;11.52;33.60
21826;BME280;11075;47.944;11.776;2024-01-30T10:16:02;96204.44;;;10.59;35.83
21826;BME280;11075;47.944;11.776;2024-01-30T10:18:29;96177.50;;;9.98;37.21
21826;BME280;11075;47.944;11.776;2024-01-30T10:20:56;96193.97;;;10.42;35.88
21826;BME280;11075;47.944;11.776;2024-01-30T10:23:24;96193.63;;;11.67;35.31
21826;BME280;11075;47.944;11.776;2024-01-30T10:25:52;96177.69;;;10.38;35.99
21826;BME280;11075;47.944;11.776;2024-01-30T10:28:19;96173.53;;;10.78;36.42
21826;BME280;11075;47.944;11.776;2024-01-30T10:30:46;96171.66;;;10.74;36.28
21826;BME280;11075;47.944;11.776;2024-01-30T10:33:12;96180.00;;;11.28;36.08
21826;BME280;11075;47.944;11.776;2024-01-30T10:35:39;96152.56;;;10.29;37.39
21826;BME280;11075;47.944;11.776;2024-01-30T10:38:06;96159.22;;;10.27;37.16
21826;BME280;11075;47.944;11.776;2024-01-30T10:40:35;96125.41;;;9.80;39.32
21826;BME280;11075;47.944;11.776;2024-01-30T10:43:02;96156.22;;;11.06;36.94
21826;BME280;11075;47.944;11.776;2024-01-30T10:45:31;96130.91;;;10.16;38.27
21826;BME280;11075;47.944;11.776;2024-01-30T10:47:59;96147.53;;;10.43;37.61
21826;BME280;11075;47.944;11.776;2024-01-30T10:50:27;96091.34;;;9.97;40.67
21826;BME280;11075;47.944;11.776;2024-01-30T10:52:54;96119.97;;;9.65;39.71
21826;BME280;11075;47.944;11.776;2024-01-30T10:55:22;96141.84;;;10.19;38.21
21826;BME280;11075;47.944;11.776;2024-01-30T10:57:50;96141.66;;;10.41;38.49
21826;BME280;11075;47.944;11.776;2024-01-30T11:00:17;96128.72;;;10.07;39.14
21826;BME280;11075;47.944;11.776;2024-01-30T11:02:46;96158.13;;;10.23;36.62
21826;BME280;11075;47.944;11.776;2024-01-30T11:05:13;96194.44;;;11.78;34.12
21826;BME280;11075;47.944;11.776;2024-01-30T11:07:42;96204.31;;;11.26;33.39
21826;BME280;11075;47.944;11.776;2024-01-30T11:10:10;96204.59;;;11.35;33.26
21826;BME280;11075;47.944;11.776;2024-01-30T11:12:42;96186.75;;;10.43;34.03
21826;BME280;11075;47.944;11.776;2024-01-30T11:15:12;96211.28;;;11.48;32.20
21826;BME280;11075;47.944;11.776;2024-01-30T11:22:45;96202.19;;;11.28;32.20
21826;BME280;11075;47.944;11.776;2024-01-30T11:25:17;96193.88;;;10.94;32.67
21826;BME280;11075;47.944;11.776;2024-01-30T11:27:44;96188.34;;;9.81;32.32
21826;BME280;11075;47.944;11.776;2024-01-30T11:30:30;96175.38;;;9.58;33.25
21826;BME280;11075;47.944;11.776;2024-01-30T11:35:58;96100.03;;;10.45;36.42
21826;BME280;11075;47.944;11.776;2024-01-30T11:38:29;96079.59;;;9.88;37.28
21826;BME280;11075;47.944;11.776;2024-01-30T11:40:56;96067.22;;;9.67;38.68
21826;BME280;11075;47.944;11.776;2024-01-30T11:43:25;96051.03;;;9.31;39.84
21826;BME280;11075;47.944;11.776;2024-01-30T11:45:52;96046.47;;;8.58;40.13
21826;BME280;11075;47.944;11.776;2024-01-30T11:48:19;96050.56;;;7.63;40.75
21826;BME280;11075;47.944;11.776;2024-01-30T11:50:46;96044.06;;;7.15;41.59
21826;BME280;11075;47.944;11.776;2024-01-30T11:53:13;96055.94;;;7.29;41.11
21826;BME280;11075;47.944;11.776;2024-01-30T11:55:40;96069.22;;;7.68;40.44
21826;BME280;11075;47.944;11.776;2024-01-30T11:58:07;96068.09;;;7.64;40.35
21826;BME280;11075;47.944;11.776;2024-01-30T12:00:34;96036.97;;;8.08;41.98
21826;BME280;11075;47.944;11.776;2024-01-30T12:03:02;96069.72;;;7.65;41.25
21826;BME280;11075;47.944;11.776;2024-01-30T12:05:30;96092.94;;;9.04;39.55
21826;BME280;11075;47.944;11.776;2024-01-30T12:07:57;96137.78;;;10.01;36.82
21826;BME280;11075;47.944;11.776;2024-01-30T12:10:27;96153.28;;;10.10;35.22
21826;BME280;11075;47.944;11.776;2024-01-30T12:12:54;96163.69;;;11.04;33.78
21826;BME280;11075;47.944;11.776;2024-01-30T12:15:21;96185.09;;;11.60;32.09
21826;BME280;11075;47.944;11.776;2024-01-30T12:17:48;96171.84;;;12.19;31.56
21826;BME280;11075;47.944;11.776;2024-01-30T12:20:19;96238.28;;;12.82;28.50
21826;BME280;11075;47.944;11.776;2024-01-30T12:22:47;96211.16;;;12.29;29.59
21826;BME280;11075;47.944;11.776;2024-01-30T12:25:15;96211.66;;;12.41;29.10
21826;BME280;11075;47.944;11.776;2024-01-30T12:27:42;96247.94;;;13.27;27.28
21826;BME280;11075;47.944;11.776;2024-01-30T12:30:09;96190.66;;;10.92;30.93
21826;BME280;11075;47.944;11.776;2024-01-30T12:32:37;96193.63;;;11.67;30.28
21826;BME280;11075;47.944;11.776;2024-01-30T12:35:12;96188.78;;;10.83;30.16
21826;BME280;11075;47.944;11.776;2024-01-30T12:37:40;96195.91;;;12.24;28.79
21826;BME280;11075;47.944;11.776;2024-01-30T12:40:07;96176.22;;;11.85;30.38
21826;BME280;11075;47.944;11.776;2024-01-30T12:42:35;96186.63;;;12.71;29.68
21826;BME280;11075;47.944;11.776;2024-01-30T12:45:05;96165.63;;;12.34;30.83
21826;BME280;11075;47.944;11.776;2024-01-30T12:47:32;96184.75;;;11.92;29.77
21826;BME280;11075;47.944;11.776;2024-01-30T12:49:58;96180.19;;;11.97;29.56
21826;BME280;11075;47.944;11.776;2024-01-30T12:52:26;96166.91;;;11.31;30.66
21826;BME280;11075;47.944;11.776;2024-01-30T12:54:53;96167.41;;;10.83;30.21
21826;BME280;11075;47.944;11.776;2024-01-30T12:57:19;96154.88;;;11.39;30.86
21826;BME280;11075;47.944;11.776;2024-01-30T12:59:46;96166.34;;;10.94;30.52